Time;durP1;ratioP1;P1;durP2;ratioP2;P2;SDS_P1;SDS_P2;PMS_P1;PMS_P2;Temp;Humidity;BMP_temperature;BMP_pressure;BME280_temperature;BME280_humidity;BME280_pressure;Samples;Min_cycle;Max_cycle;Signal;HPM_P1;HPM_P2
2022/06/05 05:17:58;;;;;;;4.20;3.90;;;;;;;21.33;64.29;97350.84;6124343;23;20172;-94
2022/06/05 05:25:42;;;;;;;4.20;3.90;;;;;;;18.91;64.11;96926.97;6152765;23;20218;-93
2022/06/05 05:30:58;;;;;;;4.70;4.30;;;;;;;19.17;64.07;96987.19;6161679;23;20165;-91
2022/06/05 05:33:26;;;;;;;4.13;3.83;;;;;;;19.43;64.20;97011.78;6110146;23;20147;-93
2022/06/05 05:38:34;;;;;;;4.50;4.20;;;;;;;18.74;64.13;96887.44;6153352;23;20215;-93
2022/06/05 05:46:22;;;;;;;4.00;3.70;;;;;;;20.78;64.08;97253.00;6168220;23;20265;-91
2022/06/05 05:48:49;;;;;;;4.70;4.30;;;;;;;20.11;64.29;97129.38;6111846;23;20171;-92
2022/06/05 05:51:16;;;;;;;4.50;4.20;;;;;;;21.30;64.19;97332.88;6111701;23;20206;-92
2022/06/05 05:53:47;;;;;;;4.60;4.30;;;;;;;19.85;64.25;97084.41;6112166;23;20159;-91
2022/06/05 05:56:27;;;;;;;4.33;4.03;;;;;;;20.80;64.29;97258.16;6125687;23;20197;-93
2022/06/05 06:04:30;;;;;;;4.10;3.80;;;;;;;21.36;64.22;97327.03;6153131;23;20206;-92
2022/06/05 06:09:37;;;;;;;6.20;4.33;;;;;;;21.35;64.32;97317.66;6141748;23;20194;-91
2022/06/05 06:12:18;;;;;;;5.20;4.80;;;;;;;21.05;65.81;97263.16;6126153;23;20226;-88
2022/06/05 06:17:37;;;;;;;6.93;6.33;;;;;;;19.91;68.47;97065.06;6121007;23;20175;-89
2022/06/05 06:20:05;;;;;;;7.60;6.90;;;;;;;20.01;69.75;97088.28;6048522;23;20199;-90
2022/06/05 06:22:32;;;;;;;8.30;7.60;;;;;;;19.37;70.73;96950.47;6049874;23;20167;-93
2022/06/05 06:24:59;;;;;;;8.53;7.43;;;;;;;20.61;71.12;97164.00;6051074;23;20168;-91
2022/06/05 06:27:27;;;;;;;8.93;8.23;;;;;;;19.90;72.41;97030.16;6075781;23;20180;-90
2022/06/05 06:29:57;;;;;;;8.87;8.00;;;;;;;19.79;72.95;97008.63;6078296;23;20152;-90
2022/06/05 06:32:24;;;;;;;9.70;8.90;;;;;;;19.23;73.31;96921.13;6052698;23;20188;-91
2022/06/05 06:34:52;;;;;;;10.00;9.20;;;;;;;19.79;74.33;97028.13;6054423;23;20159;-93
2022/06/05 06:37:20;;;;;;;10.40;9.43;;;;;;;20.02;74.07;97056.84;6101112;23;20163;-91
2022/06/05 06:39:47;;;;;;;10.23;9.33;;;;;;;20.02;73.90;97078.94;6054080;23;20196;-92
2022/06/05 06:42:14;;;;;;;10.50;9.60;;;;;;;20.17;73.93;97091.31;6076749;23;20159;-91
2022/06/05 06:44:43;;;;;;;10.13;9.27;;;;;;;19.86;73.78;97046.19;6053391;23;20160;-90
2022/06/05 06:47:10;;;;;;;10.80;9.80;;;;;;;19.66;72.81;97003.13;6054106;23;20179;-90
2022/06/05 06:49:37;;;;;;;10.40;9.50;;;;;;;19.65;72.37;96989.50;6076041;23;20172;-90
2022/06/05 06:52:05;;;;;;;10.53;9.63;;;;;;;19.00;73.59;96895.00;6100826;23;20191;-91
2022/06/05 06:54:36;;;;;;;9.80;9.00;;;;;;;19.00;73.47;96889.91;6056373;23;20155;-90
2022/06/05 06:57:20;;;;;;;10.27;9.37;;;;;;;21.55;73.48;97308.78;6061119;23;20176;-91
2022/06/05 07:02:24;;;;;;;10.17;9.27;;;;;;;19.57;72.03;96969.75;6143046;23;20219;-89
2022/06/05 07:04:57;;;;;;;10.13;9.07;;;;;;;20.17;71.06;97054.72;6129867;23;20166;-91
2022/06/05 07:07:34;;;;;;;10.23;9.37;;;;;;;18.97;70.36;96858.41;6136375;23;20210;-90
2022/06/05 07:10:05;;;;;;;9.77;8.87;;;;;;;20.08;70.50;97022.16;6111550;23;20162;-92
2022/06/05 07:12:42;;;;;;;10.40;9.40;;;;;;;19.45;70.25;96937.09;6112436;23;20209;-90
2022/06/05 07:15:20;;;;;;;11.47;9.60;;;;;;;19.02;70.56;96847.53;6159546;23;20178;-90
2022/06/05 07:18:20;;;;;;;10.00;9.10;;;;;;;21.54;71.60;97286.63;6138169;23;20163;-91
2022/06/05 07:21:14;;;;;;;10.33;9.43;;;;;;;19.40;70.45;96948.00;6160521;23;20165;-89
2022/06/05 07:23:54;;;;;;;11.50;9.87;;;;;;;18.81;70.99;96862.22;6160808;23;20155;-91
2022/06/05 07:26:23;;;;;;;10.83;9.87;;;;;;;21.55;70.89;97324.13;6111189;23;20170;-90
2022/06/05 07:28:56;;;;;;;10.63;9.73;;;;;;;19.30;70.67;97000.38;6111944;23;20207;-90
2022/06/05 07:31:30;;;;;;;10.70;9.80;;;;;;;19.12;70.40;97015.06;6112648;23;20225;-90
2022/06/05 07:33:58;;;;;;;10.27;9.47;;;;;;;18.92;70.73;97058.56;6134987;23;20146;-91
2022/06/05 07:39:04;;;;;;;10.83;9.93;;;;;;;19.22;70.16;97136.78;6180394;23;20194;-90
2022/06/05 07:41:36;;;;;;;10.57;9.67;;;;;;;19.56;69.68;97177.00;6111281;23;20190;-90
2022/06/05 07:44:15;;;;;;;9.77;8.97;;;;;;;19.61;69.42;97193.31;6160638;23;20171;-90
2022/06/05 07:55:18;;;;;;;9.90;9.10;;;;;;;18.92;69.66;97133.25;6164664;23;20198;-91
2022/06/05 07:57:46;;;;;;;9.93;9.13;;;;;;;19.47;69.34;97242.97;6111121;23;20158;-90
2022/06/05 08:00:23;;;;;;;9.90;9.10;;;;;;;19.68;69.39;97262.38;6114164;23;20184;-89
2022/06/05 08:02:54;;;;;;;10.00;9.03;;;;;;;20.00;69.56;97316.97;6159633;23;20160;-89
2022/06/05 08:05:47;;;;;;;9.43;8.70;;;;;;;20.29;69.20;97357.06;6134728;23;20197;-89
2022/06/05 08:08:19;;;;;;;9.97;9.17;;;;;;;18.83;69.00;97120.22;6133464;23;20211;-89
2022/06/05 08:11:06;;;;;;;9.47;8.70;;;;;;;20.11;68.93;97341.13;6133859;23;20154;-89
2022/06/05 08:13:58;;;;;;;9.87;9.07;;;;;;;18.93;68.75;97113.75;6131304;23;20154;-89
2022/06/05 08:16:33;;;;;;;10.10;9.30;;;;;;;19.15;68.87;97119.59;6163456;23;20185;-89
2022/06/05 08:19:04;;;;;;;9.90;9.10;;;;;;;21.16;69.05;97443.19;6135090;23;20167;-91
2022/06/05 08:21:43;;;;;;;9.77;9.07;;;;;;;19.01;68.97;97053.75;6138270;23;20173;-91
2022/06/05 08:24:13;;;;;;;10.03;9.13;;;;;;;19.04;68.56;97015.66;6133927;23;20170;-89
2022/06/05 08:26:45;;;;;;;9.47;8.67;;;;;;;19.08;69.05;96986.91;6134646;23;20238;-90
2022/06/05 08:33:13;;;;;;;9.10;8.40;;;;;;;19.11;68.82;97056.66;6175952;23;20177;-91
2022/06/05 08:35:45;;;;;;;9.40;8.70;;;;;;;18.92;68.87;97028.00;6109464;23;20175;-89
2022/06/05 08:41:39;;;;;;;9.63;8.80;;;;;;;21.57;69.33;97530.50;6162298;23;20151;-91
2022/06/05 08:44:41;;;;;;;9.53;8.73;;;;;;;19.95;69.33;97280.22;6158281;23;20170;-90
2022/06/05 08:47:44;;;;;;;10.10;9.30;;;;;;;19.19;69.20;97144.34;6159487;23;20253;-91
2022/06/05 08:50:30;;;;;;;8.73;8.03;;;;;;;21.56;69.38;97515.97;6156709;23;20166;-91
2022/06/05 08:53:44;;;;;;;9.60;8.80;;;;;;;21.56;69.17;97528.75;6063781;23;20205;-90
2022/06/05 09:00:07;;;;;;;9.90;8.97;;;;;;;19.21;69.17;97073.06;6047868;23;20176;-89
2022/06/05 09:03:12;;;;;;;9.33;8.57;;;;;;;18.94;68.77;97023.81;6063725;23;20169;-91
2022/06/05 09:06:13;;;;;;;9.70;8.87;;;;;;;21.17;69.32;97397.22;6132244;23;20189;-89
2022/06/05 09:08:42;;;;;;;10.10;9.20;;;;;;;19.71;69.34;97175.78;6148708;23;20161;-90
2022/06/05 09:11:14;;;;;;;9.70;9.00;;;;;;;19.32;69.17;97074.28;6184375;23;20193;-90
2022/06/05 09:13:50;;;;;;;10.50;9.53;;;;;;;19.44;69.36;97095.94;6160930;23;20159;-93
2022/06/05 09:16:24;;;;;;;10.33;9.43;;;;;;;19.26;69.10;97063.88;6160028;23;20184;-92
2022/06/05 09:18:51;;;;;;;9.90;9.00;;;;;;;19.76;69.21;97150.44;6136159;23;20177;-92
2022/06/05 09:21:22;;;;;;;9.77;8.83;;;;;;;19.73;69.47;97119.75;6119931;23;20197;-91
2022/06/05 09:24:13;;;;;;;10.53;9.53;;;;;;;21.57;69.62;97432.44;6204091;23;20146;-93
2022/06/05 09:34:48;;;;;;;9.77;8.90;;;;;;;18.91;70.03;96929.50;6131738;23;20187;-93
2022/06/05 09:40:16;;;;;;;10.30;9.47;;;;;;;21.58;70.04;97372.81;6150934;23;20186;-93
2022/06/05 09:43:23;;;;;;;10.20;9.30;;;;;;;21.56;69.90;97383.00;6097018;23;20198;-90
2022/06/05 09:46:08;;;;;;;10.33;9.43;;;;;;;21.34;70.14;97350.00;6135829;23;20605;-89
2022/06/05 09:48:53;;;;;;;11.00;10.00;;;;;;;20.66;69.98;97227.13;6115015;23;20203;-90
2022/06/05 09:51:20;;;;;;;12.33;10.87;;;;;;;21.09;69.97;97310.97;6091820;23;20206;-90
2022/06/05 09:53:56;;;;;;;14.47;11.90;;;;;;;21.59;69.43;97387.34;6115367;23;20151;-91
2022/06/05 09:56:34;;;;;;;17.67;14.10;;;;;;;21.59;70.16;97382.22;6147557;23;20187;-91
2022/06/05 09:59:24;;;;;;;18.10;14.23;;;;;;;21.59;70.18;97389.91;6147478;23;20191;-90
2022/06/05 10:01:55;;;;;;;18.77;14.20;;;;;;;21.26;70.06;97343.81;6122629;23;20151;-90
2022/06/05 10:04:22;;;;;;;17.83;14.67;;;;;;;21.15;70.07;97308.56;6076511;23;20159;-91
2022/06/05 10:06:52;;;;;;;20.93;15.40;;;;;;;21.19;70.07;97310.38;6123184;23;20198;-91
2022/06/05 10:09:26;;;;;;;19.50;14.57;;;;;;;21.12;69.86;97285.50;6121951;23;20170;-91
2022/06/05 10:11:58;;;;;;;20.00;14.83;;;;;;;21.60;70.22;97366.03;6099099;23;20206;-91
2022/06/05 10:14:32;;;;;;;18.27;14.33;;;;;;;21.21;69.99;97304.50;6119147;23;20179;-89
2022/06/05 10:17:26;;;;;;;18.83;13.67;;;;;;;21.59;70.20;97366.88;6120831;23;20203;-90
2022/06/05 10:20:08;;;;;;;17.97;13.80;;;;;;;21.59;70.29;97370.28;6146944;23;20164;-91
2022/06/05 10:22:45;;;;;;;16.73;13.97;;;;;;;21.36;69.82;97325.38;6148320;23;20195;-90
2022/06/05 10:25:18;;;;;;;17.20;13.97;;;;;;;21.60;70.29;97360.94;6098886;23;20191;-92
2022/06/05 10:27:53;;;;;;;17.77;13.70;;;;;;;21.07;70.27;97276.81;6147791;23;20174;-90
2022/06/05 10:30:20;;;;;;;17.27;14.23;;;;;;;21.42;70.28;97320.41;6092573;23;20182;-91
2022/06/05 10:32:57;;;;;;;16.77;14.03;;;;;;;20.97;70.26;97252.75;6142964;23;20218;-90
2022/06/05 10:35:39;;;;;;;15.87;13.03;;;;;;;20.88;70.25;97233.69;6121013;23;20222;-90
2022/06/05 10:38:24;;;;;;;18.20;13.73;;;;;;;20.49;69.92;97166.22;6099426;23;20155;-90
2022/06/05 10:40:55;;;;;;;14.93;13.33;;;;;;;20.94;69.91;97259.41;6126367;23;20158;-91
2022/06/05 10:43:24;;;;;;;16.90;12.70;;;;;;;21.31;69.93;97310.72;6147495;23;20167;-92
2022/06/05 10:45:54;;;;;;;15.47;12.97;;;;;;;21.61;70.14;97362.66;6122080;23;20190;-90
2022/06/05 10:48:49;;;;;;;14.37;12.87;;;;;;;21.35;69.46;97312.53;6137990;23;20167;-89
2022/06/05 10:51:27;;;;;;;13.87;12.47;;;;;;;21.62;70.05;97359.28;6119176;23;20168;-90
2022/06/05 10:54:14;;;;;;;14.37;12.20;;;;;;;21.05;70.04;97252.94;6148774;23;20156;-91
2022/06/05 10:59:30;;;;;;;15.43;12.90;;;;;;;19.81;71.26;97016.31;6146554;23;20179;-92
2022/06/05 11:02:29;;;;;;;13.33;11.93;;;;;;;21.62;71.65;97339.69;6152620;23;20177;-87
2022/06/05 11:29:28;;;;;;;11.50;10.40;;;;;;;21.66;71.79;97282.69;6133510;23;20726;-92
2022/06/05 11:48:29;;;;;;;11.30;10.20;;;;;;;19.45;72.56;96916.72;6125946;23;20198;-93
2022/06/05 11:51:30;;;;;;;11.53;10.53;;;;;;;21.68;72.51;97280.16;6128443;23;20213;-93
2022/06/05 12:15:49;;;;;;;14.17;10.30;;;;;;;21.70;72.06;97256.34;6141992;23;20183;-93
2022/06/05 12:18:21;;;;;;;10.93;9.93;;;;;;;19.99;71.52;96953.06;6102646;23;20171;-92
2022/06/05 12:23:33;;;;;;;10.97;9.90;;;;;;;21.70;72.50;97252.91;6145669;23;20192;-93
2022/06/05 12:28:40;;;;;;;10.90;9.80;;;;;;;21.70;72.60;97264.03;6136195;23;20449;-93
2022/06/05 14:27:07;;;;;;;9.27;8.40;;;;;;;18.17;71.75;96629.59;6154376;23;20185;-92
2022/06/05 14:29:47;;;;;;;9.50;8.63;;;;;;;18.27;71.48;96618.03;6086965;23;20199;-92
2022/06/05 14:32:34;;;;;;;9.60;8.57;;;;;;;18.25;71.95;96582.38;6084920;23;20183;-90
2022/06/05 14:35:16;;;;;;;8.63;7.93;;;;;;;21.73;72.19;97188.19;6135285;23;20174;-91
2022/06/05 14:37:46;;;;;;;8.90;8.10;;;;;;;21.71;71.98;97189.00;6183321;23;20150;-92
2022/06/05 14:57:57;;;;;;;8.97;8.17;;;;;;;17.87;71.72;96549.94;6153533;23;20178;-89
2022/06/05 15:00:34;;;;;;;8.50;7.80;;;;;;;18.40;71.46;96617.56;6127774;23;20190;-91
2022/06/05 15:03:21;;;;;;;8.90;8.17;;;;;;;21.70;71.99;97182.16;6070125;23;20215;-91
2022/06/05 15:05:58;;;;;;;8.27;7.57;;;;;;;19.69;71.63;96870.66;6115013;23;20150;-91
2022/06/05 15:08:39;;;;;;;8.47;7.77;;;;;;;21.69;71.73;97193.25;6064946;23;20179;-90
2022/06/05 15:11:18;;;;;;;8.50;7.77;;;;;;;19.27;71.61;96795.63;6134355;23;20209;-90
2022/06/05 15:14:16;;;;;;;9.07;8.30;;;;;;;18.96;73.89;96730.25;6112050;23;20212;-90
2022/06/05 15:16:49;;;;;;;9.50;8.60;;;;;;;21.70;75.90;97209.44;6098680;23;20234;-94
2022/06/05 15:19:26;;;;;;;9.03;8.30;;;;;;;20.19;76.76;96959.53;6122033;23;20207;-92
2022/06/05 15:22:13;;;;;;;9.40;8.60;;;;;;;18.02;77.06;96597.00;6099988;23;20241;-94
2022/06/05 15:24:47;;;;;;;8.73;7.93;;;;;;;20.81;78.46;97069.22;6120333;23;20167;-92
2022/06/05 15:27:56;;;;;;;9.23;8.30;;;;;;;17.51;87.25;96473.56;6134828;23;20146;-89
2022/06/05 15:30:44;;;;;;;8.60;7.80;;;;;;;17.78;89.44;96499.75;6110551;23;20179;-93
2022/06/05 15:34:00;;;;;;;9.30;7.83;;;;;;;21.79;91.75;97196.03;6114701;23;20175;-89
2022/06/05 15:36:31;;;;;;;11.40;7.43;;;;;;;21.81;94.96;97186.69;6134134;23;20143;-90
2022/06/05 16:14:49;;;;;;;9.17;5.43;;;;;;;22.01;92.98;97244.31;6138398;23;20187;-91
2022/06/05 16:20:50;;;;;;;6.87;5.37;;;;;;;17.67;89.90;96543.44;6137827;23;20186;-90
2022/06/05 16:50:22;;;;;;;6.57;5.00;;;;;;;18.81;84.96;96838.41;6152607;23;20182;-95
2022/06/05 16:52:49;;;;;;;4.93;4.53;;;;;;;18.65;84.67;96861.72;6149260;23;20186;-93
2022/06/05 16:55:27;;;;;;;6.57;4.83;;;;;;;20.72;85.48;97176.22;6125541;23;20210;-92
2022/06/05 16:58:07;;;;;;;5.07;4.67;;;;;;;21.82;85.32;97358.16;6127659;23;20140;-92
2022/06/05 17:00:54;;;;;;;4.97;4.57;;;;;;;16.88;84.89;96494.50;6149369;23;20210;-93
2022/06/05 17:03:27;;;;;;;7.63;4.80;;;;;;;19.99;85.69;97035.50;6130093;23;20171;-90
2022/06/05 17:06:32;;;;;;;4.93;4.50;;;;;;;21.82;84.73;97347.03;6103901;23;20147;-90
2022/06/05 17:09:12;;;;;;;5.30;4.20;;;;;;;21.80;85.27;97354.69;6150686;23;20175;-92
2022/06/05 17:11:41;;;;;;;4.90;4.50;;;;;;;21.80;85.29;97364.91;6147313;23;20223;-91
2022/06/05 17:14:08;;;;;;;4.47;4.07;;;;;;;20.11;84.71;97077.50;6102386;23;20155;-90
2022/06/05 17:16:42;;;;;;;4.93;4.40;;;;;;;17.16;84.54;96601.13;6124885;23;20187;-93
2022/06/05 17:19:21;;;;;;;5.37;4.40;;;;;;;21.79;85.12;97370.00;6125492;23;20154;-94
2022/06/05 17:22:13;;;;;;;4.33;4.00;;;;;;;18.55;84.76;96835.13;6149891;23;20175;-92
2022/06/05 17:24:43;;;;;;;6.37;4.23;;;;;;;21.77;84.54;97366.53;6104773;23;20171;-90
2022/06/05 17:27:18;;;;;;;5.93;4.50;;;;;;;21.77;84.30;97367.41;6152339;23;20190;-92
2022/06/05 17:30:04;;;;;;;5.20;4.30;;;;;;;21.76;84.01;97364.78;6152275;23;20185;-91
2022/06/05 17:33:10;;;;;;;5.17;4.67;;;;;;;21.76;84.18;97369.91;6152449;23;20191;-93
2022/06/05 17:35:51;;;;;;;5.67;4.63;;;;;;;21.76;84.18;97364.78;6151364;23;20159;-90
2022/06/05 17:38:56;;;;;;;4.57;4.00;;;;;;;18.73;83.87;96899.28;6150384;23;20163;-91
2022/06/05 17:41:39;;;;;;;4.77;4.33;;;;;;;21.77;83.90;97369.06;6151434;23;20203;-93
2022/06/05 17:44:18;;;;;;;4.83;4.03;;;;;;;21.75;83.68;97379.28;6128744;23;20154;-91
2022/06/05 17:46:52;;;;;;;5.13;4.33;;;;;;;19.69;83.34;97052.50;6128522;23;20179;-90
2022/06/05 17:49:46;;;;;;;4.87;4.47;;;;;;;21.74;83.74;97390.34;6129410;23;20139;-94
2022/06/05 17:52:16;;;;;;;5.53;4.10;;;;;;;17.41;83.47;96651.00;6140619;23;20182;-93
2022/06/05 17:54:53;;;;;;;4.57;4.10;;;;;;;19.39;83.68;97074.53;6104381;23;20167;-91
2022/06/05 17:57:31;;;;;;;4.37;3.93;;;;;;;18.68;83.88;96879.63;6127150;23;20151;-94
2022/06/05 18:00:11;;;;;;;3.87;3.57;;;;;;;21.71;84.17;97411.53;6105342;23;20139;-91
2022/06/05 18:02:51;;;;;;;4.47;3.97;;;;;;;19.92;83.74;97163.69;6152284;23;20167;-91
2022/06/05 18:05:22;;;;;;;5.47;3.93;;;;;;;21.70;83.43;97426.84;6105237;23;20159;-92
2022/06/05 18:07:49;;;;;;;4.83;3.60;;;;;;;16.45;82.77;96529.41;6126955;23;20163;-91
2022/06/05 18:10:20;;;;;;;4.30;3.90;;;;;;;21.70;83.17;97432.81;6104484;23;20195;-92
2022/06/05 18:12:47;;;;;;;4.37;3.97;;;;;;;20.57;82.97;97292.41;6128955;23;20195;-94
2022/06/05 18:15:20;;;;;;;4.07;3.70;;;;;;;21.69;83.35;97446.44;6104360;23;20163;-91
2022/06/05 18:18:02;;;;;;;4.00;3.70;;;;;;;18.60;83.07;96921.75;6106940;23;20155;-94
2022/06/05 18:20:33;;;;;;;5.70;3.73;;;;;;;18.54;82.79;96926.66;6153361;23;20199;-91
2022/06/05 18:23:00;;;;;;;4.50;3.97;;;;;;;19.28;82.62;97063.16;6105662;23;20185;-89
2022/06/05 18:25:32;;;;;;;3.93;3.63;;;;;;;18.69;82.78;96960.22;6128759;23;20237;-90
2022/06/05 18:28:03;;;;;;;4.13;3.83;;;;;;;18.75;82.63;96923.13;6153081;23;20166;-94
